Share

Friars Point, MS (38631)

Clarksdale (KMSCLARK2) Elev 164 ft | 34.10 °N, 90.61 °W | Change Station

Current weather conditions updated 1 second ago

Clear
Clear
70.1 °F
Feels Like 76 °F
N
4.0
Wind Variable Wind from NNE
Gusts 10.0 mph
Sunrise 6:26 AM
Sunset 7:37 PM
Moon Waning Gibbous

Today is forecast to be Warmer than yesterday.

Pressure 30.23 in
Visibility 10.0 miles
Clouds Clear
Heat Index 76 °F
Dew Point 56 °F
Humidity 61%
Rainfall 0.00 in
Snow Depth Not available.
UV 7 out of 16
Pollen 9.90 out of 12
Air Quality Not available.
Flu Activity No Activity
METAR KUTA 191535Z AUTO 34008KT 10SM CLR 21/11 A3023 RMK AO2

More Conditions Fewer Conditions

Pressure 30.23 in
Visibility 10.0 miles
Clouds Clear
Heat Index 76 °F
Dew Point 56 °F
Humidity 61%
Rainfall 0.00 in
Snow Depth Not available.
UV 7 out of 16
Pollen 9.90 out of 12
Air Quality Not available.
Flu Activity No Activity
METAR KUTA 191535Z AUTO 34008KT 10SM CLR 21/11 A3023 RMK AO2

More Conditions Fewer Conditions

10-Day Weather Forecast

Almanac

Astronomy

Apr. 19, 2014 Rise Set
Actual Time 6:26 AM CDT 7:37 PM CDT
Civil Twilight 6:00 AM CDT 8:03 PM CDT
Nautical Twilight 5:29 AM CDT 8:34 PM CDT
Astronomical Twilight 4:57 AM CDT 9:06 PM CDT
Moon No Moon Rise 9:50 AM CDT
Length of Visible Light 14h 03m
Length of Day
13h 11m
Tomorrow will be 1m 59s longer.
Waning Gibbous, 79% of the Moon is Illuminated
Today
Waning Gibbous
Apr 22
Last Quarter
Apr 29
New
May 6
First Quarter
May 14
Full

Today's Extremes

State Highs State Lows

Community

  • A Glorious Morning
    A Glorious Morning
  • Tender Rays Of Hope
    Tender Rays Of Hope
  • Bleeding Hearts
    Bleeding Hearts
  • Sunset Silhouettes
    Sunset Silhouettes
  • FL sunset Perico Isle
    FL sunset Perico Isle

WunderPhotos

Upload Photos

1,702,769 photos uploaded!

WunderBlogs® & News

Nearby

Snow Depth

Station Depth Elevation
No new snow has been reported.

Coastal Water Temperatures

Place Temperature
No Stations Reporting

Earthquake Activity

City Distance Mag. Time & Date
No recent earthquake activity has been reported nearby.
Minimum magnitude displayed is 2.5.

Nearby Weather Stations

Station Location Temp. Heat Index Dew Point Humidity Wind Precip. Elev Updated Type
Clarksdale, Clarksdale, MS 70.1 °F 76 °F 56 °F 61% NNE  at  4.0 mph 0.00 in / hr 164 ft 10:54 AM CDT Rapid Fire

Show More Stations Show Fewer Stations

What do you think?

We're not finished. Please let us know what you like, what you don't like, and what you are still missing.